Talmage, KS

7:30 AM CST on January 31, 2015 (GMT -0600)
Rural Kansas | Change Station
CLOSE
Current Station
Personal Weather Station
Location: Abilene, KS
Elevation: 1306 ft
Nearby Weather Stations

Elev 1306 ft 39.03 °N, 97.30 °W | Updated 13 minutes ago

Snow
Snow
34.3 °F
Feels Like 34 °F
N
2.7
Wind Variable Wind from ESE

Today
High -- | Low -- °F
--% Chance of Precip.
Yesterday
High -- | Low -- °F
Precip. -- in
7:36 AM 5:49 PM
Waxing Gibbous, 89% visible
Pressure 30.18 in
Visibility 10.0 miles
Clouds Overcast 6000 ft
Windchill 34 °F
Dew Point 34 °F
Humidity 99%
Rainfall 0.15 in
Snow Depth Not available.
UV 0 out of 12
Pollen .10 out of 12
Air Quality Not available.
Flu Activity Not available.
METAR KSLN 311253Z 13006KT 10SM OVC060 03/01 A3016 RMK AO2 SLP218 T00280006

More Conditions Fewer Conditions

Pressure 30.18 in
Visibility 10.0 miles
Clouds Overcast 6000 ft
Windchill 34 °F
Dew Point 34 °F
Humidity 99%
Rainfall 0.15 in
Snow Depth Not available.
UV 0 out of 12
Pollen .10 out of 12
Air Quality Not available.
Flu Activity Not available.
METAR KSLN 311253Z 13006KT 10SM OVC060 03/01 A3016 RMK AO2 SLP218 T00280006

More Conditions Fewer Conditions

10-Day Weather Forecast

Almanac

Astronomy

Jan. 31, 2015 Rise Set
Actual Time
Civil Twilight
Nautical Twilight
Astronomical Twilight
Moon
Length of Visible Light
Length of Day
Tomorrow will be .
, % of the Moon is Illuminated

Today's Extremes

State Highs State Lows

Community

WunderPhotos

Upload Photos

1,792,046 photos uploaded!

WunderBlogs® & News

Nearby

Air Quality

  Air Quality AQ Index Pollutant
Not available.

Snow Depth

Station Depth Elevation

Earthquake Activity

City Distance Mag. Time & Date
Minimum magnitude displayed is 2.5.

Coastal Water Temperatures

Place Temperature

Nearby Weather Stations